Terminal Aerodrome Forecast
Issued by NWS Detroit/Pontiac, MI

Home | Current Version | Previous Version | Text Only | Print | Product List | Glossary On
Versions: 1 2 3 4 5 6 7 8 9 10 11 12 13 14 15 16 17 18 19 20 21 22
000
FTUS43 KDTX 011136
TAFFNT
TAF
KFNT 011136Z 0112/0212 04010KT 1SM -SN OVC015
     FM011600 04014KT 1SM -SN OVC010
     FM012000 05014KT 1/2SM SN OVC008
     FM012200 04018KT 1/4SM +SN VV002
     FM020300 04018KT 3/4SM -SN OVC006
     FM020600 03018KT 2SM -SN OVC010
     FM021100 35015KT P6SM OVC015=

USA.gov is the U.S. government's official web portal to all federal, state and local government web resources and services.